createdAt,value
2023-05-19T00:00:31.584Z,100898.53
2023-05-19T00:03:01.026Z,100895.88
2023-05-19T00:05:28.580Z,100893.22
2023-05-19T00:08:00.306Z,100892.38
2023-05-19T00:10:31.798Z,100898.53
2023-05-19T00:13:00.279Z,100887.13
2023-05-19T00:15:28.341Z,100884.56
2023-05-19T00:17:55.705Z,100883.69
2023-05-19T00:20:23.520Z,100893.31
2023-05-19T00:22:51.458Z,100889.78
2023-05-19T00:25:18.449Z,100888.00
2023-05-19T00:27:46.322Z,100879.31
2023-05-19T00:30:14.430Z,100882.81
2023-05-19T00:32:41.471Z,100886.31
2023-05-19T00:35:09.690Z,100883.63
2023-05-19T00:37:37.535Z,100881.94
2023-05-19T00:40:06.835Z,100879.31
2023-05-19T00:42:34.661Z,100876.72
2023-05-19T00:45:01.785Z,100867.09
2023-05-19T00:47:31.465Z,100882.81
2023-05-19T00:49:59.704Z,100876.69
2023-05-19T00:52:27.606Z,100879.31
2023-05-19T00:54:56.172Z,100875.81
2023-05-19T00:57:24.230Z,100879.31
2023-05-19T00:59:52.100Z,100880.19
2023-05-19T01:02:20.300Z,100882.81
2023-05-19T01:04:48.365Z,100882.81
2023-05-19T01:07:17.124Z,100880.19
2023-05-19T01:09:47.434Z,100873.19
2023-05-19T01:12:16.375Z,100879.34
2023-05-19T01:14:45.418Z,100887.16
2023-05-19T01:17:42.591Z,100891.50
2023-05-19T01:20:13.720Z,100880.97
2023-05-19T01:22:58.832Z,100883.69
2023-05-19T01:25:29.545Z,100881.97
2023-05-19T01:28:20.571Z,100878.47
2023-05-19T01:30:55.645Z,100873.22
2023-05-19T01:33:24.772Z,100874.06
2023-05-19T01:35:53.951Z,100868.81
2023-05-19T01:38:24.162Z,100878.44
2023-05-19T01:40:53.420Z,100881.09
2023-05-19T01:43:22.347Z,100867.94
2023-05-19T01:45:51.188Z,100867.97
2023-05-19T01:48:19.020Z,100876.69
2023-05-19T01:50:47.378Z,100865.34
2023-05-19T01:53:14.454Z,100866.19
2023-05-19T01:55:50.765Z,100869.69
2023-05-19T01:58:48.891Z,100863.56
2023-05-19T02:01:51.656Z,100855.69
2023-05-19T02:04:33.359Z,100860.94
2023-05-19T02:07:06.205Z,100854.81
2023-05-19T02:10:05.963Z,100855.69
2023-05-19T02:12:36.300Z,100853.91
2023-05-19T02:15:18.436Z,100856.56
2023-05-19T02:17:48.636Z,100859.16
2023-05-19T02:20:16.423Z,100854.78
2023-05-19T02:22:43.504Z,100850.41
2023-05-19T02:25:10.895Z,100858.22
2023-05-19T02:27:38.944Z,100856.53
2023-05-19T02:30:07.254Z,100849.44
2023-05-19T02:32:35.265Z,100845.13
2023-05-19T02:35:03.016Z,100849.31
2023-05-19T02:37:31.358Z,100857.09
2023-05-19T02:39:58.996Z,100854.44
2023-05-19T02:42:25.930Z,100849.16
2023-05-19T02:44:55.767Z,100851.81
2023-05-19T02:47:22.568Z,100852.56
2023-05-19T02:49:50.250Z,100851.59
2023-05-19T02:52:17.988Z,100850.88
2023-05-19T02:54:45.833Z,100851.66
2023-05-19T02:57:13.599Z,100861.28
2023-05-19T02:59:41.288Z,100864.78
2023-05-19T03:02:08.995Z,100869.19
2023-05-19T03:04:41.877Z,100861.31
2023-05-19T03:07:17.695Z,100867.59
2023-05-19T03:09:45.632Z,100859.84
2023-05-19T03:12:13.300Z,100865.88
2023-05-19T03:14:41.314Z,100866.78
2023-05-19T03:17:08.539Z,100862.44
2023-05-19T03:19:36.651Z,100872.81
2023-05-19T03:22:05.156Z,100871.13
2023-05-19T03:24:32.847Z,100871.19
2023-05-19T03:27:00.817Z,100867.72
2023-05-19T03:29:28.495Z,100874.56
2023-05-19T03:31:56.390Z,100870.09
2023-05-19T03:34:23.253Z,100865.75
2023-05-19T03:36:51.088Z,100871.97
2023-05-19T03:39:18.898Z,100862.44
2023-05-19T03:41:46.757Z,100878.16
2023-05-19T03:44:13.525Z,100879.03
2023-05-19T03:46:40.352Z,100880.84
2023-05-19T03:49:08.554Z,100880.81
2023-05-19T03:51:36.699Z,100891.22
2023-05-19T03:54:04.657Z,100885.09
2023-05-19T03:56:33.049Z,100891.16
2023-05-19T03:59:00.808Z,100886.81
2023-05-19T04:01:28.087Z,100900.88
2023-05-19T04:03:57.047Z,100900.97
2023-05-19T04:06:25.071Z,100906.13
2023-05-19T04:08:51.887Z,100905.38
2023-05-19T04:11:22.456Z,100915.03
2023-05-19T04:13:50.299Z,100911.44
2023-05-19T04:16:17.398Z,100913.19
2023-05-19T04:18:46.510Z,100909.72
2023-05-19T04:21:13.567Z,100924.53
2023-05-19T04:23:40.550Z,100929.38
2023-05-19T04:26:08.321Z,100924.09
2023-05-19T04:28:39.269Z,100913.50
2023-05-19T04:31:11.098Z,100937.00
2023-05-19T04:33:38.305Z,100934.50
2023-05-19T04:36:11.544Z,100935.56
2023-05-19T04:38:43.099Z,100941.78
2023-05-19T04:41:10.746Z,100941.06
2023-05-19T04:43:42.017Z,100938.50
2023-05-19T04:46:14.256Z,100937.53
2023-05-19T04:48:41.951Z,100941.69
2023-05-19T04:51:09.807Z,100933.84
2023-05-19T04:53:37.446Z,100927.03
2023-05-19T04:56:05.481Z,100927.06
2023-05-19T04:58:33.361Z,100936.66
2023-05-19T05:01:00.280Z,100938.44
2023-05-19T05:03:27.194Z,100936.84
2023-05-19T05:05:54.078Z,100935.13
2023-05-19T05:08:24.491Z,100929.06
2023-05-19T05:10:52.750Z,100923.00
2023-05-19T05:13:22.683Z,100929.88
2023-05-19T05:15:50.469Z,100919.47
2023-05-19T05:18:17.553Z,100922.09
2023-05-19T05:20:45.266Z,100927.41
2023-05-19T05:23:14.777Z,100935.31
2023-05-19T05:25:43.779Z,100943.19
2023-05-19T05:28:10.933Z,100944.06
2023-05-19T05:30:37.801Z,100964.84
2023-05-19T05:33:05.054Z,100970.94
2023-05-19T05:35:33.375Z,100971.03
2023-05-19T05:38:01.751Z,100963.13
2023-05-19T05:40:28.773Z,100953.50
2023-05-19T05:42:56.894Z,100960.59
2023-05-19T05:45:23.775Z,100956.22
2023-05-19T05:47:51.498Z,100958.00
2023-05-19T05:50:19.145Z,100961.53
2023-05-19T05:52:51.048Z,100963.28
2023-05-19T05:55:18.537Z,100955.41
2023-05-19T05:57:45.405Z,100950.22
2023-05-19T06:00:15.958Z,100950.09
2023-05-19T06:02:46.595Z,100962.19
2023-05-19T06:05:14.361Z,100960.44
2023-05-19T06:07:42.787Z,100961.03
2023-05-19T06:10:10.188Z,100956.91
2023-05-19T06:12:40.807Z,100966.66
2023-05-19T06:15:08.224Z,100959.75
2023-05-19T06:17:37.845Z,100965.91
2023-05-19T06:20:08.674Z,100967.59
2023-05-19T06:22:35.721Z,100972.78
2023-05-19T06:25:02.759Z,100973.66
2023-05-19T06:27:32.637Z,100984.16
2023-05-19T06:30:05.619Z,100975.38
2023-05-19T06:32:32.469Z,100965.84
2023-05-19T06:34:59.314Z,100970.28
2023-05-19T06:37:26.552Z,100981.63
2023-05-19T06:39:54.291Z,100974.59
2023-05-19T06:42:25.545Z,100980.78
2023-05-19T06:44:53.405Z,100989.53
2023-05-19T06:47:21.361Z,100982.56
2023-05-19T06:49:55.566Z,100989.59
2023-05-19T06:52:23.209Z,100998.34
2023-05-19T06:54:50.741Z,100997.41
2023-05-19T06:57:17.629Z,101000.03
2023-05-19T06:59:46.705Z,100993.91
2023-05-19T07:02:13.706Z,100986.88
2023-05-19T07:04:41.264Z,100980.63
2023-05-19T07:07:08.374Z,100975.44
2023-05-19T07:09:35.406Z,100972.00
2023-05-19T07:12:02.195Z,100967.63
2023-05-19T07:14:29.115Z,100963.25
2023-05-19T07:16:56.024Z,100960.63
2023-05-19T07:19:24.246Z,100961.47
2023-05-19T07:21:51.357Z,100957.88
2023-05-19T07:24:18.293Z,100964.00
2023-05-19T07:26:45.109Z,100958.66
2023-05-19T07:29:11.931Z,100951.63
2023-05-19T07:31:39.070Z,100957.63
2023-05-19T07:34:06.155Z,100953.19
2023-05-19T07:36:34.926Z,100951.44
2023-05-19T07:39:01.772Z,100953.34
2023-05-19T07:41:33.212Z,100961.16
2023-05-19T07:44:07.822Z,100953.22
2023-05-19T07:46:35.658Z,100955.09
2023-05-19T07:49:02.675Z,100948.00
2023-05-19T07:51:29.577Z,100953.16
2023-05-19T07:53:57.628Z,100941.63
2023-05-19T07:56:25.344Z,100945.16
2023-05-19T07:58:52.329Z,100945.88
2023-05-19T08:01:19.333Z,100945.84
2023-05-19T08:03:46.334Z,100951.97
2023-05-19T08:06:13.266Z,100943.22
2023-05-19T08:08:40.209Z,100943.84
2023-05-19T08:11:08.823Z,100934.00
2023-05-19T08:13:36.588Z,100934.81
2023-05-19T08:16:06.201Z,100943.53
2023-05-19T08:18:34.132Z,100933.19
2023-05-19T08:21:02.853Z,100941.22
2023-05-19T08:23:29.814Z,100943.63
2023-05-19T08:25:56.590Z,100947.16
2023-05-19T08:28:23.546Z,100952.22
2023-05-19T08:30:52.615Z,100939.69
2023-05-19T08:33:21.746Z,100944.84
2023-05-19T08:35:50.519Z,100931.53
2023-05-19T08:38:17.612Z,100935.81
2023-05-19T08:40:47.361Z,100930.97
2023-05-19T08:43:14.562Z,100931.66
2023-05-19T08:45:45.972Z,100928.13
2023-05-19T08:48:19.351Z,100919.13
2023-05-19T08:50:57.830Z,100913.84
2023-05-19T08:53:34.352Z,100920.88
2023-05-19T08:56:16.732Z,100918.19
2023-05-19T08:58:46.385Z,100928.16
2023-05-19T09:01:18.269Z,100925.84
2023-05-19T09:03:46.647Z,100924.53
2023-05-19T09:06:13.699Z,100925.09
2023-05-19T09:08:43.337Z,100920.72
2023-05-19T09:11:11.170Z,100919.16
2023-05-19T09:13:39.339Z,100914.72
2023-05-19T09:16:06.863Z,100916.94
2023-05-19T09:18:34.543Z,100908.66
2023-05-19T09:21:03.415Z,100897.41
2023-05-19T09:23:34.230Z,100898.94
2023-05-19T09:26:09.177Z,100902.66
2023-05-19T09:28:38.180Z,100896.00
2023-05-19T09:31:08.555Z,100895.94
2023-05-19T09:33:39.727Z,100891.06
2023-05-19T09:36:08.952Z,100891.78
2023-05-19T09:38:37.497Z,100892.63
2023-05-19T09:41:07.030Z,100888.88
2023-05-19T09:43:36.659Z,100883.84
2023-05-19T09:46:07.554Z,100887.34
2023-05-19T09:48:36.811Z,100888.81
2023-05-19T09:51:08.227Z,100892.81
2023-05-19T09:53:35.888Z,100892.25
2023-05-19T09:56:03.838Z,100892.81
2023-05-19T09:58:35.320Z,100884.56
2023-05-19T10:01:04.734Z,100877.84
2023-05-19T10:03:35.230Z,100885.25
2023-05-19T10:06:04.696Z,100882.94
2023-05-19T10:08:37.927Z,100884.88
2023-05-19T10:11:07.125Z,100882.88
2023-05-19T10:13:38.737Z,100875.84
2023-05-19T10:16:07.308Z,100876.84
2023-05-19T10:18:37.593Z,100878.38
2023-05-19T10:21:09.448Z,100882.28
2023-05-19T10:23:38.794Z,100879.41
2023-05-19T10:26:09.741Z,100885.38
2023-05-19T10:28:41.251Z,100873.75
2023-05-19T10:31:16.365Z,100880.72
2023-05-19T10:34:22.379Z,100875.31
2023-05-19T10:37:13.139Z,100880.88
2023-05-19T10:39:44.140Z,100883.63
2023-05-19T10:42:23.477Z,100884.03
2023-05-19T10:45:10.019Z,100872.44
2023-05-19T10:47:41.653Z,100868.41
2023-05-19T10:50:11.237Z,100864.50
2023-05-19T10:52:40.859Z,100868.63
2023-05-19T10:55:17.770Z,100864.16
2023-05-19T10:57:54.766Z,100864.97
2023-05-19T11:00:30.063Z,100865.16
2023-05-19T11:03:18.922Z,100856.03
2023-05-19T11:05:46.746Z,100857.72
2023-05-19T11:08:15.955Z,100867.16
2023-05-19T11:10:46.343Z,100868.09
2023-05-19T11:13:22.580Z,100866.78
2023-05-19T11:15:52.173Z,100865.72
2023-05-19T11:18:20.904Z,100867.22
2023-05-19T11:21:00.911Z,100873.34
2023-05-19T11:23:35.553Z,100883.81
2023-05-19T11:26:04.462Z,100885.84
2023-05-19T11:28:34.211Z,100894.50
2023-05-19T11:31:03.386Z,100889.88
2023-05-19T11:33:32.831Z,100885.78
2023-05-19T11:36:00.727Z,100882.63
2023-05-19T11:38:30.463Z,100876.38
2023-05-19T11:40:59.356Z,100875.34
2023-05-19T11:43:28.119Z,100872.38
2023-05-19T11:45:57.097Z,100870.56
2023-05-19T11:48:26.527Z,100865.44
2023-05-19T11:50:57.026Z,100859.69
2023-05-19T11:53:25.944Z,100858.94
2023-05-19T11:55:53.632Z,100857.16
2023-05-19T11:58:27.321Z,100853.09
2023-05-19T12:00:55.240Z,100845.50
2023-05-19T12:03:28.963Z,100849.00
2023-05-19T12:05:57.798Z,100844.84
2023-05-19T12:08:25.785Z,100847.06
2023-05-19T12:10:54.271Z,100848.28
2023-05-19T12:13:23.659Z,100844.94
2023-05-19T12:15:53.355Z,100837.09
2023-05-19T12:18:21.656Z,100835.72
2023-05-19T12:20:49.798Z,100829.81
2023-05-19T12:23:19.028Z,100831.50
2023-05-19T12:25:46.641Z,100820.66
2023-05-19T12:28:16.704Z,100821.97
2023-05-19T12:30:52.047Z,100808.78
2023-05-19T12:33:26.007Z,100811.25
2023-05-19T12:36:22.777Z,100814.50
2023-05-19T12:38:55.973Z,100803.38
2023-05-19T12:41:27.481Z,100802.97
2023-05-19T12:43:56.106Z,100807.69
2023-05-19T12:46:23.928Z,100808.94
2023-05-19T12:48:52.177Z,100800.63
2023-05-19T12:51:21.331Z,100800.56
2023-05-19T12:53:50.750Z,100794.25
2023-05-19T12:56:18.415Z,100795.06
2023-05-19T12:58:46.243Z,100784.56
2023-05-19T13:01:19.057Z,100790.53
2023-05-19T13:03:46.946Z,100785.91
2023-05-19T13:06:15.878Z,100769.50
2023-05-19T13:08:43.646Z,100785.34
2023-05-19T13:11:12.261Z,100776.97
2023-05-19T13:13:40.368Z,100777.09
2023-05-19T13:16:09.093Z,100766.75
2023-05-19T13:18:37.915Z,100766.41
2023-05-19T13:21:05.852Z,100769.34
2023-05-19T13:23:35.139Z,100765.66
2023-05-19T13:26:05.166Z,100760.47
2023-05-19T13:28:32.739Z,100752.25
2023-05-19T13:31:00.478Z,100750.97
2023-05-19T13:33:28.034Z,100762.59
2023-05-19T13:35:56.900Z,100764.16
2023-05-19T13:38:25.684Z,100758.69
2023-05-19T13:40:53.295Z,100763.94
2023-05-19T13:43:22.019Z,100760.41
2023-05-19T13:45:50.912Z,100763.72
2023-05-19T13:48:19.906Z,100767.03
2023-05-19T13:50:48.656Z,100768.91
2023-05-19T13:53:19.078Z,100772.25
2023-05-19T13:55:46.919Z,100780.09
2023-05-19T13:58:17.081Z,100774.16
2023-05-19T14:03:54.861Z,100776.84
2023-05-19T14:06:22.843Z,100766.94
2023-05-19T14:08:50.394Z,100767.81
2023-05-19T14:11:22.774Z,100771.22
2023-05-19T14:13:52.748Z,100767.72
2023-05-19T14:16:22.360Z,100776.69
2023-05-19T14:18:51.875Z,100778.75
2023-05-19T14:21:22.491Z,100775.41
2023-05-19T14:23:50.662Z,100784.53
2023-05-19T14:26:19.732Z,100782.94
2023-05-19T14:28:47.430Z,100774.16
2023-05-19T14:31:15.654Z,100772.47
2023-05-19T14:33:43.707Z,100774.41
2023-05-19T14:36:12.357Z,100765.88
2023-05-19T14:38:39.952Z,100760.38
2023-05-19T14:41:08.728Z,100760.88
2023-05-19T14:43:38.393Z,100755.38
2023-05-19T14:46:06.353Z,100751.94
2023-05-19T14:48:34.020Z,100754.53
2023-05-19T14:51:01.995Z,100764.34
2023-05-19T14:53:29.743Z,100758.22
2023-05-19T14:57:25.063Z,100755.56
2023-05-19T14:59:04.966Z,100748.81
2023-05-19T15:01:32.741Z,100751.03
2023-05-19T15:04:06.707Z,100744.56
2023-05-19T15:06:37.087Z,100754.53
2023-05-19T15:09:09.834Z,100747.34
2023-05-19T15:11:37.546Z,100748.81
2023-05-19T15:14:05.277Z,100740.09
2023-05-19T15:16:32.943Z,100742.91
2023-05-19T15:19:01.841Z,100732.03
2023-05-19T15:21:29.856Z,100741.44
2023-05-19T15:23:58.080Z,100749.44
2023-05-19T15:26:27.622Z,100746.66
2023-05-19T15:28:57.224Z,100744.84
2023-05-19T15:31:25.063Z,100745.19
2023-05-19T15:33:53.169Z,100739.66
2023-05-19T15:36:20.968Z,100741.78
2023-05-19T15:38:49.002Z,100742.94
2023-05-19T15:41:16.644Z,100738.13
2023-05-19T15:43:46.457Z,100743.38
2023-05-19T15:46:16.144Z,100735.19
2023-05-19T15:48:43.824Z,100734.44
2023-05-19T15:51:11.818Z,100737.47
2023-05-19T15:53:39.587Z,100733.03
2023-05-19T15:56:10.148Z,100729.38
2023-05-19T15:58:37.692Z,100727.16
2023-05-19T16:01:05.618Z,100725.25
2023-05-19T16:03:33.310Z,100723.31
2023-05-19T16:06:01.261Z,100721.69
2023-05-19T16:08:35.437Z,100718.34
2023-05-19T16:11:03.194Z,100718.44
2023-05-19T16:13:31.142Z,100722.31
2023-05-19T16:15:59.045Z,100723.28
2023-05-19T16:18:26.892Z,100728.34
2023-05-19T16:20:54.914Z,100725.31
2023-05-19T16:23:22.683Z,100725.22
2023-05-19T16:25:50.413Z,100728.34
2023-05-19T16:28:18.222Z,100730.84
2023-05-19T16:30:46.303Z,100725.41
2023-05-19T16:33:16.130Z,100719.25
2023-05-19T16:35:44.290Z,100714.88
2023-05-19T16:38:11.885Z,100712.28
2023-05-19T16:40:39.511Z,100713.66
2023-05-19T16:43:07.266Z,100709.25
2023-05-19T16:45:35.021Z,100703.59
2023-05-19T16:48:02.868Z,100704.06
2023-05-19T16:50:30.787Z,100707.88
2023-05-19T16:52:58.473Z,100709.47
2023-05-19T16:55:27.010Z,100715.66
2023-05-19T16:57:54.702Z,100723.44
2023-05-19T17:00:23.369Z,100728.47
2023-05-19T17:02:51.245Z,100724.06
2023-05-19T17:05:19.005Z,100719.78
2023-05-19T17:07:46.984Z,100720.38
2023-05-19T17:10:15.642Z,100727.16
2023-05-19T17:12:43.561Z,100729.53
2023-05-19T17:15:11.668Z,100718.94
2023-05-19T17:17:39.569Z,100727.81
2023-05-19T17:20:08.199Z,100722.72
2023-05-19T17:22:35.958Z,100730.94
2023-05-19T17:25:04.199Z,100733.25
2023-05-19T17:27:31.788Z,100739.06
2023-05-19T17:29:59.607Z,100731.72
2023-05-19T17:32:29.113Z,100724.97
2023-05-19T17:34:58.331Z,100720.38
2023-05-19T17:37:26.194Z,100719.53
2023-05-19T17:39:54.333Z,100721.41
2023-05-19T17:42:22.321Z,100727.97
2023-05-19T17:44:50.154Z,100727.63
2023-05-19T17:47:19.097Z,100725.75
2023-05-19T17:49:48.028Z,100726.91
2023-05-19T17:52:16.626Z,100726.72
2023-05-19T17:54:45.721Z,100723.84
2023-05-19T17:57:17.272Z,100736.13
2023-05-19T17:59:46.210Z,100728.44
2023-05-19T18:02:15.775Z,100726.38
2023-05-19T18:04:43.932Z,100732.81
2023-05-19T18:07:14.002Z,100724.63
2023-05-19T18:09:47.502Z,100734.09
2023-05-19T18:12:16.379Z,100736.25
2023-05-19T18:14:44.892Z,100737.13
2023-05-19T18:17:13.475Z,100748.13
2023-05-19T18:19:42.005Z,100744.34
2023-05-19T18:22:13.532Z,100745.81
2023-05-19T18:24:42.196Z,100749.59
2023-05-19T18:27:10.110Z,100748.81
2023-05-19T18:29:38.177Z,100751.84
2023-05-19T18:32:06.594Z,100754.25
2023-05-19T18:34:35.390Z,100749.00
2023-05-19T18:37:03.116Z,100748.50
2023-05-19T18:39:31.872Z,100757.06
2023-05-19T18:42:01.869Z,100754.94
2023-05-19T18:44:29.913Z,100755.75
2023-05-19T18:46:58.759Z,100755.75
2023-05-19T18:49:27.555Z,100755.41
2023-05-19T18:51:55.681Z,100757.94
2023-05-19T18:54:23.763Z,100755.69
2023-05-19T18:56:52.296Z,100755.88
2023-05-19T18:59:20.205Z,100755.50
2023-05-19T19:01:48.965Z,100750.94
2023-05-19T19:04:16.888Z,100755.19
2023-05-19T19:06:47.528Z,100758.88
2023-05-19T19:09:15.683Z,100763.34
2023-05-19T19:11:44.581Z,100760.16
2023-05-19T19:14:13.149Z,100772.09
2023-05-19T19:16:41.714Z,100771.47
2023-05-19T19:19:10.582Z,100766.19
2023-05-19T19:21:39.339Z,100759.72
2023-05-19T19:24:07.209Z,100766.84
2023-05-19T19:26:37.028Z,100763.97
2023-05-19T19:29:09.149Z,100777.84
2023-05-19T19:31:37.873Z,100781.75
2023-05-19T19:34:09.193Z,100782.75
2023-05-19T19:39:23.862Z,100785.16
2023-05-19T19:41:51.727Z,100797.69
2023-05-19T19:44:21.700Z,100791.63
2023-05-19T19:46:51.141Z,100802.09
2023-05-19T19:49:19.809Z,100792.16
2023-05-19T19:51:47.568Z,100806.47
2023-05-19T19:54:15.253Z,100802.84
2023-05-19T19:56:44.033Z,100811.66
2023-05-19T19:59:13.276Z,100811.56
2023-05-19T20:01:42.351Z,100804.03
2023-05-19T20:04:10.552Z,100804.88
2023-05-19T20:06:39.272Z,100812.69
2023-05-19T20:09:26.634Z,100815.41
2023-05-19T20:11:54.638Z,100818.91
2023-05-19T20:14:22.562Z,100827.00
2023-05-19T20:16:51.541Z,100827.69
2023-05-19T20:19:20.170Z,100828.59
2023-05-19T20:21:48.277Z,100836.56
2023-05-19T20:24:17.345Z,100823.13
2023-05-19T20:26:45.100Z,100817.00
2023-05-19T20:29:13.046Z,100816.44
2023-05-19T20:31:41.723Z,100812.97
2023-05-19T20:34:10.822Z,100815.13
2023-05-19T20:36:39.434Z,100813.47
2023-05-19T20:39:09.906Z,100819.09
2023-05-19T20:41:37.813Z,100818.63
2023-05-19T20:44:08.380Z,100811.09
2023-05-19T20:46:37.057Z,100818.34
2023-05-19T20:49:05.898Z,100821.75
2023-05-19T20:51:33.688Z,100817.44
2023-05-19T20:54:01.649Z,100808.66
2023-05-19T20:56:30.474Z,100798.13
2023-05-19T20:58:58.279Z,100792.63
2023-05-19T21:01:27.217Z,100802.31
2023-05-19T21:03:56.403Z,100785.56
2023-05-19T21:06:24.247Z,100783.59
2023-05-19T21:08:52.788Z,100778.16
2023-05-19T21:11:21.333Z,100786.31
2023-05-19T21:13:50.276Z,100778.47
2023-05-19T21:16:18.932Z,100772.44
2023-05-19T21:18:46.777Z,100773.22
2023-05-19T21:21:15.049Z,100764.31
2023-05-19T21:23:42.776Z,100770.66
2023-05-19T21:26:11.660Z,100776.69
2023-05-19T21:28:39.454Z,100769.56
2023-05-19T21:31:07.438Z,100774.22
2023-05-19T21:33:35.391Z,100761.97
2023-05-19T21:36:03.486Z,100767.22
2023-05-19T21:38:31.396Z,100755.59
2023-05-19T21:41:00.124Z,100756.84
2023-05-19T21:43:28.796Z,100759.59
2023-05-19T21:45:57.503Z,100764.63
2023-05-19T21:48:25.385Z,100756.03
2023-05-19T21:50:55.842Z,100772.56
2023-05-19T21:53:25.242Z,100761.66
2023-05-19T21:55:53.781Z,100751.47
2023-05-19T21:58:21.633Z,100753.00
2023-05-19T22:00:50.861Z,100749.53
2023-05-19T22:03:19.737Z,100746.94
2023-05-19T22:05:55.293Z,100737.38
2023-05-19T22:08:23.123Z,100735.69
2023-05-19T22:10:52.995Z,100724.78
2023-05-19T22:13:21.447Z,100733.06
2023-05-19T22:15:50.421Z,100725.50
2023-05-19T22:18:19.000Z,100719.25
2023-05-19T22:20:47.040Z,100724.31
2023-05-19T22:23:15.684Z,100720.94
2023-05-19T22:25:44.674Z,100714.03
2023-05-19T22:28:13.399Z,100714.13
2023-05-19T22:30:42.377Z,100717.63
2023-05-19T22:33:12.110Z,100704.66
2023-05-19T22:35:41.964Z,100702.25
2023-05-19T22:38:10.589Z,100705.00
2023-05-19T22:40:39.490Z,100689.88
2023-05-19T22:43:07.512Z,100695.16
2023-05-19T22:45:36.971Z,100695.44
2023-05-19T22:48:06.175Z,100702.78
2023-05-19T22:50:34.829Z,100697.78
2023-05-19T22:53:03.468Z,100704.44
2023-05-19T22:55:32.498Z,100703.50
2023-05-19T22:58:01.302Z,100706.56
2023-05-19T23:00:29.199Z,100710.75
2023-05-19T23:02:58.544Z,100708.69
2023-05-19T23:05:27.163Z,100707.63
2023-05-19T23:07:55.898Z,100703.16
2023-05-19T23:10:24.520Z,100694.94
2023-05-19T23:12:52.725Z,100698.44
2023-05-19T23:15:21.271Z,100699.09
2023-05-19T23:17:49.886Z,100695.44
2023-05-19T23:20:18.698Z,100698.13
2023-05-19T23:22:46.532Z,100690.19
2023-05-19T23:25:15.119Z,100684.97
2023-05-19T23:27:43.067Z,100674.50
2023-05-19T23:30:11.898Z,100675.50
2023-05-19T23:32:41.094Z,100682.81
2023-05-19T23:35:14.076Z,100682.94
2023-05-19T23:37:42.909Z,100689.13
2023-05-19T23:40:12.019Z,100690.91
2023-05-19T23:42:40.731Z,100686.47
2023-05-19T23:45:09.569Z,100695.31
2023-05-19T23:47:37.522Z,100690.97
2023-05-19T23:50:06.603Z,100695.34
2023-05-19T23:52:35.238Z,100689.19
2023-05-19T23:55:04.129Z,100690.06
2023-05-19T23:57:32.725Z,100689.13
